sensor_id;sensor_type;location;lat;lon;timestamp;temperature;humidity
51733;DHT22;39139;53.144;6.244;2024-03-08T00:00:16;2.10;99.90
51733;DHT22;39139;53.144;6.244;2024-03-08T00:02:45;2.00;99.90
51733;DHT22;39139;53.144;6.244;2024-03-08T00:05:12;2.10;99.90
51733;DHT22;39139;53.144;6.244;2024-03-08T00:07:38;2.10;99.90
51733;DHT22;39139;53.144;6.244;2024-03-08T00:10:06;2.00;99.90
51733;DHT22;39139;53.144;6.244;2024-03-08T00:12:32;2.00;99.90
51733;DHT22;39139;53.144;6.244;2024-03-08T00:14:58;2.00;99.90
51733;DHT22;39139;53.144;6.244;2024-03-08T00:17:24;1.90;99.90
51733;DHT22;39139;53.144;6.244;2024-03-08T00:19:50;1.90;99.90
51733;DHT22;39139;53.144;6.244;2024-03-08T00:22:16;1.90;99.90
51733;DHT22;39139;53.144;6.244;2024-03-08T00:24:43;1.80;99.90
51733;DHT22;39139;53.144;6.244;2024-03-08T00:27:09;2.30;99.90
51733;DHT22;39139;53.144;6.244;2024-03-08T00:29:34;1.80;99.90
51733;DHT22;39139;53.144;6.244;2024-03-08T00:32:00;1.80;99.90
51733;DHT22;39139;53.144;6.244;2024-03-08T00:34:27;1.70;99.90
51733;DHT22;39139;53.144;6.244;2024-03-08T00:36:53;1.70;99.90
51733;DHT22;39139;53.144;6.244;2024-03-08T00:39:19;1.70;99.90
51733;DHT22;39139;53.144;6.244;2024-03-08T00:41:48;1.70;99.90
51733;DHT22;39139;53.144;6.244;2024-03-08T00:44:13;1.70;99.90
51733;DHT22;39139;53.144;6.244;2024-03-08T00:46:39;1.70;99.90
51733;DHT22;39139;53.144;6.244;2024-03-08T00:49:05;1.70;99.90
51733;DHT22;39139;53.144;6.244;2024-03-08T00:51:32;1.70;99.90
51733;DHT22;39139;53.144;6.244;2024-03-08T00:53:58;1.70;99.90
51733;DHT22;39139;53.144;6.244;2024-03-08T00:56:23;1.70;99.90
51733;DHT22;39139;53.144;6.244;2024-03-08T00:58:50;1.70;99.90
51733;DHT22;39139;53.144;6.244;2024-03-08T01:01:18;1.70;99.90
51733;DHT22;39139;53.144;6.244;2024-03-08T01:03:43;1.70;99.90
51733;DHT22;39139;53.144;6.244;2024-03-08T01:06:09;1.60;99.90
51733;DHT22;39139;53.144;6.244;2024-03-08T01:08:35;1.60;99.90
51733;DHT22;39139;53.144;6.244;2024-03-08T01:11:06;1.60;99.90
51733;DHT22;39139;53.144;6.244;2024-03-08T01:13:32;1.60;99.90
51733;DHT22;39139;53.144;6.244;2024-03-08T01:15:57;1.60;99.90
51733;DHT22;39139;53.144;6.244;2024-03-08T01:18:23;1.50;99.90
51733;DHT22;39139;53.144;6.244;2024-03-08T01:20:48;1.50;99.90
51733;DHT22;39139;53.144;6.244;2024-03-08T01:23:14;1.60;99.90
51733;DHT22;39139;53.144;6.244;2024-03-08T01:25:40;1.50;99.90
51733;DHT22;39139;53.144;6.244;2024-03-08T01:28:07;2.10;99.90
51733;DHT22;39139;53.144;6.244;2024-03-08T01:30:32;1.60;99.90
51733;DHT22;39139;53.144;6.244;2024-03-08T01:33:00;1.50;99.90
51733;DHT22;39139;53.144;6.244;2024-03-08T01:35:25;1.50;99.90
51733;DHT22;39139;53.144;6.244;2024-03-08T01:37:52;1.50;99.90
51733;DHT22;39139;53.144;6.244;2024-03-08T01:40:18;1.50;99.90
51733;DHT22;39139;53.144;6.244;2024-03-08T01:42:44;1.50;99.90
51733;DHT22;39139;53.144;6.244;2024-03-08T01:45:10;1.50;99.90
51733;DHT22;39139;53.144;6.244;2024-03-08T01:47:37;1.50;99.90
51733;DHT22;39139;53.144;6.244;2024-03-08T01:50:03;1.50;99.90
51733;DHT22;39139;53.144;6.244;2024-03-08T01:52:30;1.50;99.90
51733;DHT22;39139;53.144;6.244;2024-03-08T01:54:59;1.50;99.90
51733;DHT22;39139;53.144;6.244;2024-03-08T01:57:27;1.50;99.90
51733;DHT22;39139;53.144;6.244;2024-03-08T01:59:54;1.50;99.90
51733;DHT22;39139;53.144;6.244;2024-03-08T02:02:22;1.50;99.90
51733;DHT22;39139;53.144;6.244;2024-03-08T02:04:48;1.50;99.90
51733;DHT22;39139;53.144;6.244;2024-03-08T02:07:14;1.50;99.90
51733;DHT22;39139;53.144;6.244;2024-03-08T02:09:40;1.40;99.90
51733;DHT22;39139;53.144;6.244;2024-03-08T02:12:06;1.40;99.90
51733;DHT22;39139;53.144;6.244;2024-03-08T02:14:33;1.40;99.90
51733;DHT22;39139;53.144;6.244;2024-03-08T02:17:02;1.40;99.90
51733;DHT22;39139;53.144;6.244;2024-03-08T02:19:28;1.40;99.90
51733;DHT22;39139;53.144;6.244;2024-03-08T02:21:54;1.40;99.90
51733;DHT22;39139;53.144;6.244;2024-03-08T02:24:20;1.40;99.90
51733;DHT22;39139;53.144;6.244;2024-03-08T02:26:45;1.40;99.90
51733;DHT22;39139;53.144;6.244;2024-03-08T02:29:11;1.30;99.90
51733;DHT22;39139;53.144;6.244;2024-03-08T02:31:37;1.30;99.90
51733;DHT22;39139;53.144;6.244;2024-03-08T02:34:04;1.30;99.90
51733;DHT22;39139;53.144;6.244;2024-03-08T02:36:30;1.30;99.90
51733;DHT22;39139;53.144;6.244;2024-03-08T02:39:02;1.30;99.90
51733;DHT22;39139;53.144;6.244;2024-03-08T02:41:27;1.30;99.90
51733;DHT22;39139;53.144;6.244;2024-03-08T02:43:53;1.30;99.90
51733;DHT22;39139;53.144;6.244;2024-03-08T02:46:20;1.30;99.90
51733;DHT22;39139;53.144;6.244;2024-03-08T02:48:46;1.30;99.90
51733;DHT22;39139;53.144;6.244;2024-03-08T02:51:12;1.30;99.90
51733;DHT22;39139;53.144;6.244;2024-03-08T02:53:39;1.30;99.90
51733;DHT22;39139;53.144;6.244;2024-03-08T02:56:04;2.80;99.90
51733;DHT22;39139;53.144;6.244;2024-03-08T02:58:34;1.20;99.90
51733;DHT22;39139;53.144;6.244;2024-03-08T03:00:59;1.20;99.90
51733;DHT22;39139;53.144;6.244;2024-03-08T03:03:25;1.20;99.90
51733;DHT22;39139;53.144;6.244;2024-03-08T03:05:52;1.20;99.90
51733;DHT22;39139;53.144;6.244;2024-03-08T03:08:21;1.20;99.90
51733;DHT22;39139;53.144;6.244;2024-03-08T03:10:47;1.20;99.90
51733;DHT22;39139;53.144;6.244;2024-03-08T03:13:12;1.10;99.90
51733;DHT22;39139;53.144;6.244;2024-03-08T03:15:39;1.10;99.90
51733;DHT22;39139;53.144;6.244;2024-03-08T03:18:07;1.10;99.90
51733;DHT22;39139;53.144;6.244;2024-03-08T03:20:33;1.10;99.90
51733;DHT22;39139;53.144;6.244;2024-03-08T03:23:02;1.10;99.90
51733;DHT22;39139;53.144;6.244;2024-03-08T03:25:28;1.10;99.90
51733;DHT22;39139;53.144;6.244;2024-03-08T03:27:59;1.10;99.90
51733;DHT22;39139;53.144;6.244;2024-03-08T03:30:25;2.40;99.90
51733;DHT22;39139;53.144;6.244;2024-03-08T03:33:01;1.10;99.90
51733;DHT22;39139;53.144;6.244;2024-03-08T03:35:32;1.00;99.90
51733;DHT22;39139;53.144;6.244;2024-03-08T03:37:57;1.00;99.90
51733;DHT22;39139;53.144;6.244;2024-03-08T03:40:36;1.00;99.90
51733;DHT22;39139;53.144;6.244;2024-03-08T03:43:02;1.00;99.90
51733;DHT22;39139;53.144;6.244;2024-03-08T03:45:28;0.90;99.90
51733;DHT22;39139;53.144;6.244;2024-03-08T03:47:54;1.00;99.90
51733;DHT22;39139;53.144;6.244;2024-03-08T03:50:20;1.00;99.90
51733;DHT22;39139;53.144;6.244;2024-03-08T03:52:47;1.00;99.90
51733;DHT22;39139;53.144;6.244;2024-03-08T03:55:14;0.90;99.90
51733;DHT22;39139;53.144;6.244;2024-03-08T03:57:40;0.90;99.90
51733;DHT22;39139;53.144;6.244;2024-03-08T04:00:06;0.90;99.90
51733;DHT22;39139;53.144;6.244;2024-03-08T04:02:37;0.90;99.90
51733;DHT22;39139;53.144;6.244;2024-03-08T04:05:04;0.90;99.90
51733;DHT22;39139;53.144;6.244;2024-03-08T04:07:30;0.90;99.90
51733;DHT22;39139;53.144;6.244;2024-03-08T04:09:55;0.80;99.90
51733;DHT22;39139;53.144;6.244;2024-03-08T04:12:21;0.90;99.90
51733;DHT22;39139;53.144;6.244;2024-03-08T04:14:48;0.80;99.90
51733;DHT22;39139;53.144;6.244;2024-03-08T04:17:14;0.80;99.90
51733;DHT22;39139;53.144;6.244;2024-03-08T04:19:39;0.10;99.90
51733;DHT22;39139;53.144;6.244;2024-03-08T04:22:08;0.80;99.90
51733;DHT22;39139;53.144;6.244;2024-03-08T04:24:34;0.80;99.90
51733;DHT22;39139;53.144;6.244;2024-03-08T04:27:00;0.80;99.90
51733;DHT22;39139;53.144;6.244;2024-03-08T04:29:25;0.80;99.90
51733;DHT22;39139;53.144;6.244;2024-03-08T04:31:51;0.70;99.90
51733;DHT22;39139;53.144;6.244;2024-03-08T04:34:20;0.70;99.90
51733;DHT22;39139;53.144;6.244;2024-03-08T04:36:47;0.70;99.90
51733;DHT22;39139;53.144;6.244;2024-03-08T04:39:13;0.70;99.90
51733;DHT22;39139;53.144;6.244;2024-03-08T04:41:39;0.70;99.90
51733;DHT22;39139;53.144;6.244;2024-03-08T04:44:05;0.70;99.90
51733;DHT22;39139;53.144;6.244;2024-03-08T04:46:31;0.70;99.90
51733;DHT22;39139;53.144;6.244;2024-03-08T04:48:57;0.60;99.90
51733;DHT22;39139;53.144;6.244;2024-03-08T04:51:25;1.60;99.90
51733;DHT22;39139;53.144;6.244;2024-03-08T04:53:50;0.60;99.90
51733;DHT22;39139;53.144;6.244;2024-03-08T04:56:16;0.60;99.90
51733;DHT22;39139;53.144;6.244;2024-03-08T04:58:42;0.60;99.90
51733;DHT22;39139;53.144;6.244;2024-03-08T05:01:07;0.60;99.90
51733;DHT22;39139;53.144;6.244;2024-03-08T05:03:36;0.60;99.90
51733;DHT22;39139;53.144;6.244;2024-03-08T05:06:02;0.60;99.90
51733;DHT22;39139;53.144;6.244;2024-03-08T05:08:27;0.60;99.90
51733;DHT22;39139;53.144;6.244;2024-03-08T05:10:53;0.50;99.90
51733;DHT22;39139;53.144;6.244;2024-03-08T05:13:19;0.50;99.90
51733;DHT22;39139;53.144;6.244;2024-03-08T05:15:48;0.50;99.90
51733;DHT22;39139;53.144;6.244;2024-03-08T05:18:15;0.50;99.90
51733;DHT22;39139;53.144;6.244;2024-03-08T05:20:40;0.50;99.90
51733;DHT22;39139;53.144;6.244;2024-03-08T05:23:07;0.50;99.90
51733;DHT22;39139;53.144;6.244;2024-03-08T05:25:33;0.40;99.90
51733;DHT22;39139;53.144;6.244;2024-03-08T05:27:59;0.50;99.90
51733;DHT22;39139;53.144;6.244;2024-03-08T05:30:24;0.50;99.90
51733;DHT22;39139;53.144;6.244;2024-03-08T05:32:50;0.50;99.90
51733;DHT22;39139;53.144;6.244;2024-03-08T05:35:16;0.40;99.90
51733;DHT22;39139;53.144;6.244;2024-03-08T05:37:42;0.80;99.90
51733;DHT22;39139;53.144;6.244;2024-03-08T05:40:10;0.40;99.90
51733;DHT22;39139;53.144;6.244;2024-03-08T05:42:36;0.40;99.90
51733;DHT22;39139;53.144;6.244;2024-03-08T05:45:05;0.50;99.90
51733;DHT22;39139;53.144;6.244;2024-03-08T05:47:32;0.50;99.90
51733;DHT22;39139;53.144;6.244;2024-03-08T05:50:00;0.40;99.90
51733;DHT22;39139;53.144;6.244;2024-03-08T05:52:26;0.40;99.90
51733;DHT22;39139;53.144;6.244;2024-03-08T05:54:52;0.40;99.90
51733;DHT22;39139;53.144;6.244;2024-03-08T05:57:18;0.40;99.90
51733;DHT22;39139;53.144;6.244;2024-03-08T05:59:43;0.40;99.90
51733;DHT22;39139;53.144;6.244;2024-03-08T06:02:09;0.40;99.90
51733;DHT22;39139;53.144;6.244;2024-03-08T06:04:35;0.40;99.90
51733;DHT22;39139;53.144;6.244;2024-03-08T06:07:00;0.40;99.90
51733;DHT22;39139;53.144;6.244;2024-03-08T06:09:28;0.40;99.90
51733;DHT22;39139;53.144;6.244;2024-03-08T06:11:54;0.40;99.90
51733;DHT22;39139;53.144;6.244;2024-03-08T06:14:20;0.40;99.90
51733;DHT22;39139;53.144;6.244;2024-03-08T06:16:46;0.40;99.90
51733;DHT22;39139;53.144;6.244;2024-03-08T06:19:13;0.40;99.90
51733;DHT22;39139;53.144;6.244;2024-03-08T06:21:39;0.40;99.90
51733;DHT22;39139;53.144;6.244;2024-03-08T06:24:05;0.40;99.90
51733;DHT22;39139;53.144;6.244;2024-03-08T06:26:30;0.40;99.90
51733;DHT22;39139;53.144;6.244;2024-03-08T06:28:57;0.40;99.90
51733;DHT22;39139;53.144;6.244;2024-03-08T06:31:23;0.40;99.90
51733;DHT22;39139;53.144;6.244;2024-03-08T06:33:49;0.40;99.90
51733;DHT22;39139;53.144;6.244;2024-03-08T06:36:18;0.50;99.90
51733;DHT22;39139;53.144;6.244;2024-03-08T06:38:45;0.40;99.90
51733;DHT22;39139;53.144;6.244;2024-03-08T06:41:11;0.50;99.90
51733;DHT22;39139;53.144;6.244;2024-03-08T06:43:44;1.20;99.90
51733;DHT22;39139;53.144;6.244;2024-03-08T06:46:10;0.50;99.90
51733;DHT22;39139;53.144;6.244;2024-03-08T06:48:38;0.70;99.90
51733;DHT22;39139;53.144;6.244;2024-03-08T06:51:04;0.60;99.90
51733;DHT22;39139;53.144;6.244;2024-03-08T06:53:30;0.70;99.90
51733;DHT22;39139;53.144;6.244;2024-03-08T06:55:57;2.20;99.90
51733;DHT22;39139;53.144;6.244;2024-03-08T06:58:23;0.70;99.90
51733;DHT22;39139;53.144;6.244;2024-03-08T07:00:49;0.80;99.90
51733;DHT22;39139;53.144;6.244;2024-03-08T07:03:18;0.80;99.90
51733;DHT22;39139;53.144;6.244;2024-03-08T07:05:43;0.80;99.90
51733;DHT22;39139;53.144;6.244;2024-03-08T07:08:09;0.90;99.90
51733;DHT22;39139;53.144;6.244;2024-03-08T07:10:35;0.90;99.90
51733;DHT22;39139;53.144;6.244;2024-03-08T07:13:02;0.90;99.90
51733;DHT22;39139;53.144;6.244;2024-03-08T07:15:28;1.00;99.90
51733;DHT22;39139;53.144;6.244;2024-03-08T07:17:54;1.10;99.90
51733;DHT22;39139;53.144;6.244;2024-03-08T07:20:20;1.10;99.90
51733;DHT22;39139;53.144;6.244;2024-03-08T07:22:46;1.20;99.90
51733;DHT22;39139;53.144;6.244;2024-03-08T07:25:14;1.20;99.90
51733;DHT22;39139;53.144;6.244;2024-03-08T07:27:53;1.30;99.90
51733;DHT22;39139;53.144;6.244;2024-03-08T07:30:21;1.30;99.90
51733;DHT22;39139;53.144;6.244;2024-03-08T07:33:06;1.40;99.90
51733;DHT22;39139;53.144;6.244;2024-03-08T07:35:33;2.00;99.90
51733;DHT22;39139;53.144;6.244;2024-03-08T07:37:59;2.10;99.90
51733;DHT22;39139;53.144;6.244;2024-03-08T07:40:28;1.60;99.90
51733;DHT22;39139;53.144;6.244;2024-03-08T07:42:53;1.70;99.90
51733;DHT22;39139;53.144;6.244;2024-03-08T07:45:19;1.70;99.90
51733;DHT22;39139;53.144;6.244;2024-03-08T07:47:45;1.90;99.90
51733;DHT22;39139;53.144;6.244;2024-03-08T07:50:11;2.00;99.90
51733;DHT22;39139;53.144;6.244;2024-03-08T07:52:36;2.10;99.90
51733;DHT22;39139;53.144;6.244;2024-03-08T07:55:02;1.90;99.90
51733;DHT22;39139;53.144;6.244;2024-03-08T07:57:29;2.30;99.90
51733;DHT22;39139;53.144;6.244;2024-03-08T07:59:55;2.40;99.90
51733;DHT22;39139;53.144;6.244;2024-03-08T08:02:21;2.40;99.90
51733;DHT22;39139;53.144;6.244;2024-03-08T08:04:47;2.60;99.90
51733;DHT22;39139;53.144;6.244;2024-03-08T08:07:15;2.80;99.90
51733;DHT22;39139;53.144;6.244;2024-03-08T08:09:41;3.10;99.90
51733;DHT22;39139;53.144;6.244;2024-03-08T08:12:11;3.30;99.90
51733;DHT22;39139;53.144;6.244;2024-03-08T08:14:38;3.40;99.90
51733;DHT22;39139;53.144;6.244;2024-03-08T08:17:04;3.70;99.90
51733;DHT22;39139;53.144;6.244;2024-03-08T08:19:30;4.00;99.90
51733;DHT22;39139;53.144;6.244;2024-03-08T08:21:57;4.30;99.90
51733;DHT22;39139;53.144;6.244;2024-03-08T08:24:23;4.60;99.90
51733;DHT22;39139;53.144;6.244;2024-03-08T08:26:49;5.00;99.90
51733;DHT22;39139;53.144;6.244;2024-03-08T08:29:14;5.10;99.90
51733;DHT22;39139;53.144;6.244;2024-03-08T08:31:40;5.30;99.90
51733;DHT22;39139;53.144;6.244;2024-03-08T08:34:05;5.60;99.90
51733;DHT22;39139;53.144;6.244;2024-03-08T08:36:32;5.80;99.90
51733;DHT22;39139;53.144;6.244;2024-03-08T08:38:59;6.10;99.90
51733;DHT22;39139;53.144;6.244;2024-03-08T08:41:25;6.40;99.90
51733;DHT22;39139;53.144;6.244;2024-03-08T08:43:51;6.50;99.90
51733;DHT22;39139;53.144;6.244;2024-03-08T08:46:19;6.80;99.90
51733;DHT22;39139;53.144;6.244;2024-03-08T08:48:47;6.90;99.90
51733;DHT22;39139;53.144;6.244;2024-03-08T08:51:12;7.00;99.90
51733;DHT22;39139;53.144;6.244;2024-03-08T08:53:42;7.30;99.90
51733;DHT22;39139;53.144;6.244;2024-03-08T08:56:15;7.40;99.90
51733;DHT22;39139;53.144;6.244;2024-03-08T08:58:43;7.70;99.90
51733;DHT22;39139;53.144;6.244;2024-03-08T09:01:09;7.80;99.90
51733;DHT22;39139;53.144;6.244;2024-03-08T09:03:38;8.40;99.90
51733;DHT22;39139;53.144;6.244;2024-03-08T09:06:06;8.00;99.90
51733;DHT22;39139;53.144;6.244;2024-03-08T09:08:36;8.00;99.90
51733;DHT22;39139;53.144;6.244;2024-03-08T09:11:01;9.00;99.90
51733;DHT22;39139;53.144;6.244;2024-03-08T09:13:27;8.30;99.90
51733;DHT22;39139;53.144;6.244;2024-03-08T09:15:53;8.30;99.90
51733;DHT22;39139;53.144;6.244;2024-03-08T09:18:18;8.30;99.90
51733;DHT22;39139;53.144;6.244;2024-03-08T09:20:44;8.30;99.90
51733;DHT22;39139;53.144;6.244;2024-03-08T09:23:10;8.50;99.90
51733;DHT22;39139;53.144;6.244;2024-03-08T09:25:36;8.60;99.90
51733;DHT22;39139;53.144;6.244;2024-03-08T09:28:03;8.90;99.90
51733;DHT22;39139;53.144;6.244;2024-03-08T09:30:28;8.70;99.90
51733;DHT22;39139;53.144;6.244;2024-03-08T09:32:54;8.80;99.90
51733;DHT22;39139;53.144;6.244;2024-03-08T09:35:20;8.70;99.90
51733;DHT22;39139;53.144;6.244;2024-03-08T09:37:45;8.40;99.90
51733;DHT22;39139;53.144;6.244;2024-03-08T09:40:13;8.40;99.90
51733;DHT22;39139;53.144;6.244;2024-03-08T09:42:41;8.50;99.90
51733;DHT22;39139;53.144;6.244;2024-03-08T09:45:11;8.50;99.90
51733;DHT22;39139;53.144;6.244;2024-03-08T09:47:41;8.70;99.90
51733;DHT22;39139;53.144;6.244;2024-03-08T09:50:08;8.70;99.90
51733;DHT22;39139;53.144;6.244;2024-03-08T09:52:40;8.60;99.90
51733;DHT22;39139;53.144;6.244;2024-03-08T09:55:06;8.40;99.90
51733;DHT22;39139;53.144;6.244;2024-03-08T09:57:33;8.30;99.90
51733;DHT22;39139;53.144;6.244;2024-03-08T10:00:00;8.20;99.90
51733;DHT22;39139;53.144;6.244;2024-03-08T10:02:28;8.30;99.90
51733;DHT22;39139;53.144;6.244;2024-03-08T10:04:54;9.30;99.90
51733;DHT22;39139;53.144;6.244;2024-03-08T10:07:23;8.50;99.90
51733;DHT22;39139;53.144;6.244;2024-03-08T10:09:51;8.20;99.90
51733;DHT22;39139;53.144;6.244;2024-03-08T10:12:17;8.30;99.90
51733;DHT22;39139;53.144;6.244;2024-03-08T10:14:45;8.50;99.90
51733;DHT22;39139;53.144;6.244;2024-03-08T10:17:12;8.70;99.90
51733;DHT22;39139;53.144;6.244;2024-03-08T10:19:38;8.70;99.90
51733;DHT22;39139;53.144;6.244;2024-03-08T10:22:04;8.70;99.90
51733;DHT22;39139;53.144;6.244;2024-03-08T10:24:31;8.80;99.90
51733;DHT22;39139;53.144;6.244;2024-03-08T10:27:00;9.10;99.90
51733;DHT22;39139;53.144;6.244;2024-03-08T10:29:27;9.80;99.90
51733;DHT22;39139;53.144;6.244;2024-03-08T10:31:54;9.20;99.90
51733;DHT22;39139;53.144;6.244;2024-03-08T10:34:22;9.40;99.90
51733;DHT22;39139;53.144;6.244;2024-03-08T10:36:50;9.50;99.90
51733;DHT22;39139;53.144;6.244;2024-03-08T10:39:23;9.90;99.90
51733;DHT22;39139;53.144;6.244;2024-03-08T10:41:57;9.70;99.90
51733;DHT22;39139;53.144;6.244;2024-03-08T10:47:12;9.80;99.90
51733;DHT22;39139;53.144;6.244;2024-03-08T10:52:32;9.70;99.90
51733;DHT22;39139;53.144;6.244;2024-03-08T10:55:01;9.60;99.90
51733;DHT22;39139;53.144;6.244;2024-03-08T10:57:27;9.70;99.90
51733;DHT22;39139;53.144;6.244;2024-03-08T10:59:54;10.00;99.90
51733;DHT22;39139;53.144;6.244;2024-03-08T11:02:20;9.80;99.90
51733;DHT22;39139;53.144;6.244;2024-03-08T11:04:50;10.70;99.90
51733;DHT22;39139;53.144;6.244;2024-03-08T11:07:16;9.80;99.90
51733;DHT22;39139;53.144;6.244;2024-03-08T11:09:47;9.90;99.90
51733;DHT22;39139;53.144;6.244;2024-03-08T11:12:24;9.90;99.90
51733;DHT22;39139;53.144;6.244;2024-03-08T11:15:02;10.00;99.90
51733;DHT22;39139;53.144;6.244;2024-03-08T11:20:14;10.10;99.90
51733;DHT22;39139;53.144;6.244;2024-03-08T11:22:48;10.10;99.90
51733;DHT22;39139;53.144;6.244;2024-03-08T11:25:40;10.20;99.90
51733;DHT22;39139;53.144;6.244;2024-03-08T11:28:22;10.30;99.90
51733;DHT22;39139;53.144;6.244;2024-03-08T11:33:30;11.30;99.90
51733;DHT22;39139;53.144;6.244;2024-03-08T11:36:12;10.40;99.90
51733;DHT22;39139;53.144;6.244;2024-03-08T11:38:42;10.70;99.90
51733;DHT22;39139;53.144;6.244;2024-03-08T11:41:09;10.40;99.90
51733;DHT22;39139;53.144;6.244;2024-03-08T11:43:42;10.50;99.90
51733;DHT22;39139;53.144;6.244;2024-03-08T11:46:09;10.60;99.90
51733;DHT22;39139;53.144;6.244;2024-03-08T11:48:35;10.60;99.90
51733;DHT22;39139;53.144;6.244;2024-03-08T11:51:04;10.70;99.90
51733;DHT22;39139;53.144;6.244;2024-03-08T11:53:30;10.80;99.90
51733;DHT22;39139;53.144;6.244;2024-03-08T11:56:17;10.80;99.90
51733;DHT22;39139;53.144;6.244;2024-03-08T11:58:53;10.90;99.90
51733;DHT22;39139;53.144;6.244;2024-03-08T12:01:19;11.10;99.90
51733;DHT22;39139;53.144;6.244;2024-03-08T12:03:56;10.90;99.90
51733;DHT22;39139;53.144;6.244;2024-03-08T12:06:37;11.30;99.90
51733;DHT22;39139;53.144;6.244;2024-03-08T12:09:08;11.30;99.90
51733;DHT22;39139;53.144;6.244;2024-03-08T12:11:34;11.30;99.90
51733;DHT22;39139;53.144;6.244;2024-03-08T12:14:03;11.40;99.90
51733;DHT22;39139;53.144;6.244;2024-03-08T12:16:29;11.70;99.90
51733;DHT22;39139;53.144;6.244;2024-03-08T12:18:55;11.60;99.90
51733;DHT22;39139;53.144;6.244;2024-03-08T12:21:21;12.80;99.90
51733;DHT22;39139;53.144;6.244;2024-03-08T12:24:08;11.90;99.90
51733;DHT22;39139;53.144;6.244;2024-03-08T12:26:36;12.10;99.90
51733;DHT22;39139;53.144;6.244;2024-03-08T12:29:21;12.10;99.90
51733;DHT22;39139;53.144;6.244;2024-03-08T12:31:54;11.90;99.90
51733;DHT22;39139;53.144;6.244;2024-03-08T12:34:21;11.70;99.90
51733;DHT22;39139;53.144;6.244;2024-03-08T12:36:52;11.50;99.90
51733;DHT22;39139;53.144;6.244;2024-03-08T12:39:20;11.50;99.90
51733;DHT22;39139;53.144;6.244;2024-03-08T12:41:52;11.60;99.90
51733;DHT22;39139;53.144;6.244;2024-03-08T12:44:19;11.40;99.90
51733;DHT22;39139;53.144;6.244;2024-03-08T12:46:47;11.30;99.90
51733;DHT22;39139;53.144;6.244;2024-03-08T12:49:13;12.10;99.90
51733;DHT22;39139;53.144;6.244;2024-03-08T12:51:43;10.90;99.90
51733;DHT22;39139;53.144;6.244;2024-03-08T12:54:09;10.90;99.90
51733;DHT22;39139;53.144;6.244;2024-03-08T12:56:35;10.90;99.90
51733;DHT22;39139;53.144;6.244;2024-03-08T12:59:03;11.60;99.90
51733;DHT22;39139;53.144;6.244;2024-03-08T13:01:30;10.90;99.90
51733;DHT22;39139;53.144;6.244;2024-03-08T13:03:58;10.90;99.90
51733;DHT22;39139;53.144;6.244;2024-03-08T13:06:28;11.00;99.90
51733;DHT22;39139;53.144;6.244;2024-03-08T13:08:54;11.10;99.90
51733;DHT22;39139;53.144;6.244;2024-03-08T13:11:24;11.20;99.90
51733;DHT22;39139;53.144;6.244;2024-03-08T13:13:50;11.10;99.90
51733;DHT22;39139;53.144;6.244;2024-03-08T13:16:17;11.60;99.90
51733;DHT22;39139;53.144;6.244;2024-03-08T13:18:45;11.00;99.90
51733;DHT22;39139;53.144;6.244;2024-03-08T13:21:11;11.10;99.90
51733;DHT22;39139;53.144;6.244;2024-03-08T13:23:40;11.00;99.90
51733;DHT22;39139;53.144;6.244;2024-03-08T13:26:11;11.40;99.90
51733;DHT22;39139;53.144;6.244;2024-03-08T13:28:47;11.30;99.90
51733;DHT22;39139;53.144;6.244;2024-03-08T13:31:17;11.10;99.90
51733;DHT22;39139;53.144;6.244;2024-03-08T13:33:45;11.00;99.90
51733;DHT22;39139;53.144;6.244;2024-03-08T13:36:12;11.00;99.90
51733;DHT22;39139;53.144;6.244;2024-03-08T13:38:46;11.00;99.90
51733;DHT22;39139;53.144;6.244;2024-03-08T13:41:12;11.00;99.90
51733;DHT22;39139;53.144;6.244;2024-03-08T13:43:44;11.00;99.90
51733;DHT22;39139;53.144;6.244;2024-03-08T13:46:11;11.10;99.90
51733;DHT22;39139;53.144;6.244;2024-03-08T13:48:37;11.00;99.90
51733;DHT22;39139;53.144;6.244;2024-03-08T13:51:06;11.10;99.90
51733;DHT22;39139;53.144;6.244;2024-03-08T13:53:32;11.00;99.90
51733;DHT22;39139;53.144;6.244;2024-03-08T13:55:59;11.00;99.90
51733;DHT22;39139;53.144;6.244;2024-03-08T13:58:26;11.10;99.90
51733;DHT22;39139;53.144;6.244;2024-03-08T14:00:51;10.90;99.90
51733;DHT22;39139;53.144;6.244;2024-03-08T14:03:17;12.10;99.90
51733;DHT22;39139;53.144;6.244;2024-03-08T14:05:43;11.20;99.90
51733;DHT22;39139;53.144;6.244;2024-03-08T14:08:10;10.80;99.90
51733;DHT22;39139;53.144;6.244;2024-03-08T14:10:37;10.80;99.90
51733;DHT22;39139;53.144;6.244;2024-03-08T14:13:04;10.70;99.90
51733;DHT22;39139;53.144;6.244;2024-03-08T14:15:34;10.60;99.90
51733;DHT22;39139;53.144;6.244;2024-03-08T14:18:00;10.70;99.90
51733;DHT22;39139;53.144;6.244;2024-03-08T14:20:27;10.60;99.90
51733;DHT22;39139;53.144;6.244;2024-03-08T14:22:55;10.60;99.90
51733;DHT22;39139;53.144;6.244;2024-03-08T14:25:22;10.60;99.90
51733;DHT22;39139;53.144;6.244;2024-03-08T14:27:52;10.60;99.90
51733;DHT22;39139;53.144;6.244;2024-03-08T14:30:28;10.50;99.90
51733;DHT22;39139;53.144;6.244;2024-03-08T14:33:07;10.70;99.90
51733;DHT22;39139;53.144;6.244;2024-03-08T14:35:38;10.50;99.90
51733;DHT22;39139;53.144;6.244;2024-03-08T14:38:04;10.50;99.90
51733;DHT22;39139;53.144;6.244;2024-03-08T14:40:33;10.50;99.90
51733;DHT22;39139;53.144;6.244;2024-03-08T14:42:59;10.40;99.90
51733;DHT22;39139;53.144;6.244;2024-03-08T14:45:26;10.30;99.90
51733;DHT22;39139;53.144;6.244;2024-03-08T14:47:52;10.20;99.90
51733;DHT22;39139;53.144;6.244;2024-03-08T14:50:22;10.20;99.90
51733;DHT22;39139;53.144;6.244;2024-03-08T14:52:51;10.10;99.90
51733;DHT22;39139;53.144;6.244;2024-03-08T14:55:18;10.20;99.90
51733;DHT22;39139;53.144;6.244;2024-03-08T14:57:47;11.30;99.90
51733;DHT22;39139;53.144;6.244;2024-03-08T15:00:17;10.10;99.90
51733;DHT22;39139;53.144;6.244;2024-03-08T15:02:44;9.90;99.90
51733;DHT22;39139;53.144;6.244;2024-03-08T15:05:10;9.90;99.90
51733;DHT22;39139;53.144;6.244;2024-03-08T15:07:39;9.80;99.90
51733;DHT22;39139;53.144;6.244;2024-03-08T15:10:08;10.30;99.90
51733;DHT22;39139;53.144;6.244;2024-03-08T15:12:40;9.80;99.90
51733;DHT22;39139;53.144;6.244;2024-03-08T15:15:09;11.00;99.90
51733;DHT22;39139;53.144;6.244;2024-03-08T15:17:36;9.80;99.90
51733;DHT22;39139;53.144;6.244;2024-03-08T15:20:06;9.70;99.90
51733;DHT22;39139;53.144;6.244;2024-03-08T15:22:41;9.70;99.90
51733;DHT22;39139;53.144;6.244;2024-03-08T15:25:07;10.80;99.90
51733;DHT22;39139;53.144;6.244;2024-03-08T15:27:33;9.50;99.90
51733;DHT22;39139;53.144;6.244;2024-03-08T15:30:03;9.50;99.90
51733;DHT22;39139;53.144;6.244;2024-03-08T15:32:33;9.40;99.90
51733;DHT22;39139;53.144;6.244;2024-03-08T15:34:58;9.40;99.90
51733;DHT22;39139;53.144;6.244;2024-03-08T15:37:24;9.40;99.90
51733;DHT22;39139;53.144;6.244;2024-03-08T15:39:51;9.30;99.90
51733;DHT22;39139;53.144;6.244;2024-03-08T15:42:17;9.20;99.90
51733;DHT22;39139;53.144;6.244;2024-03-08T15:44:42;9.20;99.90
51733;DHT22;39139;53.144;6.244;2024-03-08T15:47:09;10.20;99.90
51733;DHT22;39139;53.144;6.244;2024-03-08T15:49:37;9.10;99.90
51733;DHT22;39139;53.144;6.244;2024-03-08T15:52:02;9.00;99.90
51733;DHT22;39139;53.144;6.244;2024-03-08T15:54:31;10.20;99.90